createdAt,value
2023-03-30T00:01:22.235Z,98359.38
2023-03-30T00:03:51.521Z,98375.03
2023-03-30T00:06:23.796Z,98362.78
2023-03-30T00:08:58.118Z,98369.34
2023-03-30T00:11:28.514Z,98372.63
2023-03-30T00:13:57.605Z,98368.47
2023-03-30T00:16:26.540Z,98380.28
2023-03-30T00:18:55.635Z,98396.69
2023-03-30T00:21:24.925Z,98413.34
2023-03-30T00:23:53.998Z,98438.19
2023-03-30T00:26:23.479Z,98434.09
2023-03-30T00:28:52.480Z,98447.56
2023-03-30T00:31:21.489Z,98466.22
2023-03-30T00:33:50.968Z,98459.16
2023-03-30T00:36:21.326Z,98442.72
2023-03-30T00:38:50.369Z,98433.03
2023-03-30T00:41:19.188Z,98428.31
2023-03-30T00:44:00.450Z,98422.91
2023-03-30T00:46:31.988Z,98418.28
2023-03-30T00:49:07.569Z,98423.19
2023-03-30T00:51:42.669Z,98437.19
2023-03-30T00:54:18.237Z,98433.16
2023-03-30T00:56:47.805Z,98446.81
2023-03-30T00:59:16.741Z,98441.88
2023-03-30T01:01:51.297Z,98444.97
2023-03-30T01:04:21.723Z,98452.81
2023-03-30T01:06:53.169Z,98462.41
2023-03-30T01:09:23.647Z,98466.81
2023-03-30T01:11:53.078Z,98470.22
2023-03-30T01:14:22.120Z,98493.94
2023-03-30T01:17:17.396Z,98492.16
2023-03-30T01:20:16.124Z,98484.38
2023-03-30T01:23:09.781Z,98482.94
2023-03-30T01:25:57.361Z,98480.38
2023-03-30T01:28:42.798Z,98477.75
2023-03-30T01:31:26.461Z,98471.91
2023-03-30T01:34:19.985Z,98454.03
2023-03-30T01:37:09.125Z,98458.53
2023-03-30T01:40:14.765Z,98461.69
2023-03-30T01:43:05.571Z,98462.34
2023-03-30T01:45:43.880Z,98471.06
2023-03-30T01:48:46.686Z,98467.19
2023-03-30T01:51:27.257Z,98467.06
2023-03-30T01:54:04.003Z,98476.75
2023-03-30T01:56:56.016Z,98484.50
2023-03-30T01:59:49.143Z,98482.53
2023-03-30T02:02:19.939Z,98478.84
2023-03-30T02:04:50.262Z,98481.97
2023-03-30T02:07:24.638Z,98493.50
2023-03-30T02:09:57.332Z,98500.97
2023-03-30T02:12:26.869Z,98502.69
2023-03-30T02:14:59.765Z,98517.84
2023-03-30T02:17:31.370Z,98536.69
2023-03-30T02:20:01.720Z,98548.78
2023-03-30T02:22:30.683Z,98551.44
2023-03-30T02:25:01.467Z,98557.00
2023-03-30T02:27:31.072Z,98562.50
2023-03-30T02:29:59.922Z,98545.72
2023-03-30T02:32:34.687Z,98541.19
2023-03-30T02:35:29.938Z,98532.94
2023-03-30T02:38:20.888Z,98526.06
2023-03-30T02:41:09.740Z,98510.06
2023-03-30T02:43:42.975Z,98492.59
2023-03-30T02:46:53.204Z,98502.41
2023-03-30T02:49:35.344Z,98500.22
2023-03-30T02:52:34.749Z,98493.75
2023-03-30T02:55:35.519Z,98486.22
2023-03-30T02:58:22.325Z,98477.41
2023-03-30T03:01:29.459Z,98476.97
2023-03-30T03:04:04.234Z,98468.09
2023-03-30T03:06:41.781Z,98460.91
2023-03-30T03:09:11.150Z,98454.00
2023-03-30T03:11:40.162Z,98455.63
2023-03-30T03:14:10.534Z,98454.97
2023-03-30T03:16:39.776Z,98455.69
2023-03-30T03:19:19.694Z,98456.09
2023-03-30T03:21:50.777Z,98444.25
2023-03-30T03:24:20.109Z,98442.31
2023-03-30T03:27:06.925Z,98439.50
2023-03-30T03:29:52.563Z,98454.72
2023-03-30T03:32:21.866Z,98453.72
2023-03-30T03:34:51.898Z,98449.06
2023-03-30T03:37:21.554Z,98460.00
2023-03-30T03:39:50.283Z,98464.41
2023-03-30T03:42:19.774Z,98460.34
2023-03-30T03:45:02.260Z,98456.41
2023-03-30T03:47:33.449Z,98455.19
2023-03-30T03:50:05.113Z,98454.88
2023-03-30T03:52:34.593Z,98452.88
2023-03-30T03:55:04.603Z,98453.63
2023-03-30T03:57:33.983Z,98457.63
2023-03-30T04:00:05.023Z,98464.97
2023-03-30T04:02:40.839Z,98472.09
2023-03-30T04:05:10.558Z,98479.97
2023-03-30T04:07:39.776Z,98473.88
2023-03-30T04:10:09.816Z,98475.09
2023-03-30T04:12:59.322Z,98468.25
2023-03-30T04:15:57.351Z,98457.47
2023-03-30T04:18:34.429Z,98461.16
2023-03-30T04:21:13.965Z,98458.19
2023-03-30T04:24:02.859Z,98450.88
2023-03-30T04:26:50.324Z,98455.41
2023-03-30T04:29:28.401Z,98456.34
2023-03-30T04:32:21.759Z,98443.16
2023-03-30T04:35:12.025Z,98439.50
2023-03-30T04:38:02.922Z,98444.41
2023-03-30T04:40:51.780Z,98451.03
2023-03-30T04:43:41.359Z,98445.94
2023-03-30T04:46:28.965Z,98454.69
2023-03-30T04:49:10.056Z,98459.59
2023-03-30T04:52:11.568Z,98453.28
2023-03-30T04:54:58.297Z,98456.13
2023-03-30T04:58:05.695Z,98449.25
2023-03-30T05:00:53.186Z,98446.78
2023-03-30T05:03:41.943Z,98450.66
2023-03-30T05:06:28.931Z,98449.81
2023-03-30T05:09:26.919Z,98446.22
2023-03-30T05:12:27.964Z,98445.28
2023-03-30T05:15:14.614Z,98428.94
2023-03-30T05:18:02.438Z,98437.59
2023-03-30T05:20:48.756Z,98440.59
2023-03-30T05:23:27.737Z,98445.25
2023-03-30T05:26:17.183Z,98432.69
2023-03-30T05:29:06.721Z,98433.09
2023-03-30T05:31:58.475Z,98432.75
2023-03-30T05:34:46.318Z,98435.16
2023-03-30T05:37:24.051Z,98426.50
2023-03-30T05:40:16.994Z,98435.28
2023-03-30T05:43:05.075Z,98425.63
2023-03-30T05:45:54.179Z,98423.44
2023-03-30T05:48:41.533Z,98422.69
2023-03-30T05:51:26.958Z,98426.25
2023-03-30T05:54:15.496Z,98416.56
2023-03-30T05:56:47.347Z,98415.50
2023-03-30T05:59:26.695Z,98403.91
2023-03-30T06:02:25.586Z,98410.63
2023-03-30T06:05:02.507Z,98408.94
2023-03-30T06:07:32.858Z,98401.81
2023-03-30T06:10:02.923Z,98396.56
2023-03-30T06:12:32.706Z,98393.44
2023-03-30T06:15:03.604Z,98395.66
2023-03-30T06:17:42.628Z,98385.63
2023-03-30T06:20:13.660Z,98384.56
2023-03-30T06:22:46.690Z,98388.66
2023-03-30T06:25:22.629Z,98382.97
2023-03-30T06:27:53.374Z,98374.44
2023-03-30T06:30:23.219Z,98358.50
2023-03-30T06:32:55.508Z,98363.88
2023-03-30T06:35:37.274Z,98360.69
2023-03-30T06:38:06.388Z,98351.06
2023-03-30T06:40:35.496Z,98352.06
2023-03-30T06:43:05.022Z,98352.41
2023-03-30T06:45:36.721Z,98348.69
2023-03-30T06:48:07.597Z,98342.44
2023-03-30T06:50:41.468Z,98337.34
2023-03-30T06:53:29.238Z,98337.53
2023-03-30T06:56:00.531Z,98336.88
2023-03-30T06:58:32.442Z,98341.81
2023-03-30T07:01:11.106Z,98331.06
2023-03-30T07:04:00.484Z,98331.72
2023-03-30T07:06:49.534Z,98318.81
2023-03-30T07:09:19.498Z,98311.66
2023-03-30T07:11:48.596Z,98304.34
2023-03-30T07:14:17.596Z,98313.59
2023-03-30T07:16:49.185Z,98305.63
2023-03-30T07:19:18.430Z,98312.56
2023-03-30T07:21:47.561Z,98296.53
2023-03-30T07:24:19.283Z,98294.13
2023-03-30T07:26:48.427Z,98295.06
2023-03-30T07:29:17.546Z,98288.38
2023-03-30T07:31:52.224Z,98285.97
2023-03-30T07:34:22.235Z,98286.69
2023-03-30T07:36:55.975Z,98281.16
2023-03-30T07:39:32.105Z,98277.53
2023-03-30T07:42:04.995Z,98274.44
2023-03-30T07:44:33.999Z,98277.78
2023-03-30T07:47:07.806Z,98269.97
2023-03-30T07:49:38.738Z,98280.69
2023-03-30T07:52:08.581Z,98264.91
2023-03-30T07:54:58.649Z,98265.94
2023-03-30T07:57:49.525Z,98260.03
2023-03-30T08:00:19.874Z,98263.41
2023-03-30T08:03:23.047Z,98249.09
2023-03-30T08:05:57.043Z,98241.06
2023-03-30T08:08:34.127Z,98245.75
2023-03-30T08:11:04.336Z,98241.00
2023-03-30T08:13:33.942Z,98236.06
2023-03-30T08:16:02.915Z,98231.56
2023-03-30T08:18:32.488Z,98229.22
2023-03-30T08:21:01.487Z,98213.75
2023-03-30T08:23:31.103Z,98220.22
2023-03-30T08:26:03.306Z,98212.94
2023-03-30T08:28:33.026Z,98206.94
2023-03-30T08:31:07.060Z,98191.88
2023-03-30T08:33:36.326Z,98190.81
2023-03-30T08:36:06.507Z,98190.44
2023-03-30T08:38:35.603Z,98181.41
2023-03-30T08:41:28.114Z,98180.63
2023-03-30T08:43:58.948Z,98170.81
2023-03-30T08:46:30.212Z,98167.94
2023-03-30T08:49:07.421Z,98171.66
2023-03-30T08:51:39.190Z,98167.63
2023-03-30T08:54:11.560Z,98151.75
2023-03-30T08:57:02.145Z,98162.06
2023-03-30T09:00:07.600Z,98151.59
2023-03-30T09:02:45.059Z,98144.31
2023-03-30T09:05:23.545Z,98139.09
2023-03-30T09:07:56.747Z,98147.69
2023-03-30T09:10:30.289Z,98143.28
2023-03-30T09:13:02.311Z,98146.31
2023-03-30T09:15:40.917Z,98136.34
2023-03-30T09:18:35.825Z,98129.25
2023-03-30T09:21:07.344Z,98115.84
2023-03-30T09:23:36.756Z,98112.94
2023-03-30T09:26:12.245Z,98105.59
2023-03-30T09:28:50.836Z,98102.50
2023-03-30T09:31:45.156Z,98092.53
2023-03-30T09:34:41.959Z,98086.13
2023-03-30T09:37:12.926Z,98091.91
2023-03-30T09:39:42.324Z,98082.16
2023-03-30T09:42:24.158Z,98087.81
2023-03-30T09:45:22.980Z,98080.97
2023-03-30T09:47:52.123Z,98079.91
2023-03-30T09:50:30.172Z,98082.09
2023-03-30T09:53:04.745Z,98076.03
2023-03-30T09:55:36.115Z,98074.59
2023-03-30T09:58:30.029Z,98063.78
2023-03-30T10:01:07.827Z,98056.19
2023-03-30T10:03:37.541Z,98065.44
2023-03-30T10:06:16.909Z,98050.50
2023-03-30T10:08:52.190Z,98047.69
2023-03-30T10:11:23.344Z,98044.13
2023-03-30T10:13:52.872Z,98040.38
2023-03-30T10:16:35.772Z,98022.50
2023-03-30T10:19:17.715Z,98021.03
2023-03-30T10:21:47.976Z,98018.75
2023-03-30T10:24:17.107Z,98023.91
2023-03-30T10:26:56.796Z,98001.47
2023-03-30T10:29:29.543Z,98004.34
2023-03-30T10:32:05.089Z,98003.50
2023-03-30T10:34:36.997Z,97995.94
2023-03-30T10:37:19.476Z,97983.78
2023-03-30T10:39:49.987Z,97985.06
2023-03-30T10:42:25.216Z,97986.75
2023-03-30T10:45:07.244Z,97967.88
2023-03-30T10:47:54.625Z,97975.66
2023-03-30T10:50:36.769Z,97965.63
2023-03-30T10:53:43.754Z,97961.94
2023-03-30T10:56:41.318Z,97961.25
2023-03-30T10:59:13.252Z,97955.81
2023-03-30T11:01:58.894Z,97954.22
2023-03-30T11:04:38.283Z,97957.22
2023-03-30T11:07:19.241Z,97956.66
2023-03-30T11:09:55.168Z,97956.72
2023-03-30T11:12:27.999Z,97960.41
2023-03-30T11:15:06.288Z,97968.94
2023-03-30T11:17:51.312Z,97975.81
2023-03-30T11:20:28.301Z,97966.47
2023-03-30T11:23:39.944Z,97952.28
2023-03-30T11:26:13.463Z,97956.72
2023-03-30T11:29:04.073Z,97948.03
2023-03-30T11:31:41.929Z,97945.72
2023-03-30T11:34:24.773Z,97948.28
2023-03-30T11:37:07.143Z,97939.41
2023-03-30T11:39:40.231Z,97941.19
2023-03-30T11:42:31.703Z,97932.25
2023-03-30T11:45:02.853Z,97941.19
2023-03-30T11:48:08.953Z,97934.75
2023-03-30T11:50:56.609Z,97935.69
2023-03-30T11:53:38.227Z,97940.88
2023-03-30T11:56:17.477Z,97931.13
2023-03-30T11:59:46.385Z,97926.06
2023-03-30T12:02:41.325Z,97923.53
2023-03-30T12:05:19.092Z,97923.28
2023-03-30T12:08:04.821Z,97921.63
2023-03-30T12:10:45.859Z,97921.25
2023-03-30T12:13:19.643Z,97920.78
2023-03-30T12:16:09.212Z,97923.06
2023-03-30T12:18:42.067Z,97918.19
2023-03-30T12:21:25.735Z,97910.63
2023-03-30T12:24:03.150Z,97922.88
2023-03-30T12:26:38.972Z,97926.09
2023-03-30T12:32:05.975Z,97927.78
2023-03-30T12:34:42.107Z,97933.66
2023-03-30T12:37:34.292Z,97925.63
2023-03-30T12:40:21.495Z,97930.31
2023-03-30T12:43:09.988Z,97934.25
2023-03-30T12:46:03.293Z,97927.56
2023-03-30T12:49:52.404Z,97925.94
2023-03-30T12:52:34.626Z,97929.31
2023-03-30T12:55:32.678Z,97917.31
2023-03-30T12:58:19.916Z,97924.66
2023-03-30T13:01:07.264Z,97925.25
2023-03-30T13:03:55.464Z,97925.47
2023-03-30T13:06:37.209Z,97933.09
2023-03-30T13:09:17.925Z,97930.72
2023-03-30T13:12:28.055Z,97939.13
2023-03-30T13:15:19.077Z,97930.75
2023-03-30T13:17:56.973Z,97931.56
2023-03-30T13:20:57.841Z,97931.66
2023-03-30T13:23:33.084Z,97925.88
2023-03-30T13:26:40.253Z,97935.00
2023-03-30T13:29:16.248Z,97929.91
2023-03-30T13:32:03.340Z,97931.34
2023-03-30T13:35:13.326Z,97934.13
2023-03-30T13:38:23.050Z,97938.78
2023-03-30T13:41:22.877Z,97935.88
2023-03-30T13:43:57.570Z,97932.16
2023-03-30T13:46:54.120Z,97931.53
2023-03-30T13:49:56.158Z,97922.47
2023-03-30T13:52:38.312Z,97918.09
2023-03-30T13:55:28.131Z,97925.03
2023-03-30T13:58:04.274Z,97931.38
2023-03-30T14:00:46.586Z,97942.00
2023-03-30T14:03:41.110Z,97938.44
2023-03-30T14:06:19.008Z,97938.03
2023-03-30T14:08:59.479Z,97951.66
2023-03-30T14:11:37.335Z,97964.19
2023-03-30T14:14:07.743Z,97976.97
2023-03-30T14:16:41.433Z,97994.34
2023-03-30T14:19:23.149Z,98012.47
2023-03-30T14:22:00.831Z,98030.09
2023-03-30T14:24:33.668Z,98051.34
2023-03-30T14:27:03.980Z,98068.13
2023-03-30T14:29:33.430Z,98074.88
2023-03-30T14:34:36.027Z,98069.22
2023-03-30T14:37:08.655Z,98071.25
2023-03-30T14:39:44.419Z,98068.50
2023-03-30T14:42:22.361Z,98047.09
2023-03-30T14:44:55.119Z,98048.97
2023-03-30T14:47:29.755Z,98056.38
2023-03-30T14:50:03.276Z,98058.72
2023-03-30T14:52:41.753Z,98053.09
2023-03-30T14:55:25.250Z,98059.47
2023-03-30T14:57:56.771Z,98054.03
2023-03-30T15:00:26.101Z,98052.44
2023-03-30T15:03:01.648Z,98059.06
2023-03-30T15:05:37.393Z,98058.16
2023-03-30T15:08:22.952Z,98063.94
2023-03-30T15:10:57.856Z,98058.47
2023-03-30T15:13:54.049Z,98059.88
2023-03-30T15:16:32.801Z,98062.75
2023-03-30T15:19:30.869Z,98066.69
2023-03-30T15:22:06.177Z,98067.31
2023-03-30T15:24:38.493Z,98073.91
2023-03-30T15:27:12.721Z,98073.97
2023-03-30T15:29:42.623Z,98081.00
2023-03-30T15:32:28.353Z,98078.63
2023-03-30T15:35:03.139Z,98081.16
2023-03-30T15:37:33.197Z,98080.97
2023-03-30T15:40:02.498Z,98076.59
2023-03-30T15:42:34.848Z,98068.19
2023-03-30T15:45:10.213Z,98068.94
2023-03-30T15:47:40.065Z,98069.03
2023-03-30T15:50:14.652Z,98071.38
2023-03-30T15:52:45.697Z,98077.06
2023-03-30T15:55:27.285Z,98081.59
2023-03-30T15:57:56.788Z,98071.25
2023-03-30T16:00:29.859Z,98075.88
2023-03-30T16:03:01.259Z,98084.09
2023-03-30T16:05:37.708Z,98097.94
2023-03-30T16:08:06.870Z,98102.03
2023-03-30T16:10:38.438Z,98123.69
2023-03-30T16:13:08.129Z,98119.28
2023-03-30T16:15:36.906Z,98117.47
2023-03-30T16:18:06.027Z,98108.88
2023-03-30T16:20:35.801Z,98114.53
2023-03-30T16:23:05.498Z,98104.16
2023-03-30T16:25:44.927Z,98093.34
2023-03-30T16:28:18.785Z,98086.94
2023-03-30T16:30:50.042Z,98090.31
2023-03-30T16:33:19.414Z,98087.09
2023-03-30T16:35:48.227Z,98083.13
2023-03-30T16:38:18.726Z,98075.78
2023-03-30T16:40:54.790Z,98063.69
2023-03-30T16:43:24.349Z,98051.38
2023-03-30T16:45:53.110Z,98063.34
2023-03-30T16:48:22.987Z,98070.34
2023-03-30T16:50:57.531Z,98082.03
2023-03-30T16:53:26.608Z,98075.13
2023-03-30T16:55:55.561Z,98076.31
2023-03-30T16:58:24.532Z,98073.00
2023-03-30T17:00:57.349Z,98065.19
2023-03-30T17:03:26.617Z,98050.69
2023-03-30T17:05:55.574Z,98054.47
2023-03-30T17:08:26.717Z,98054.72
2023-03-30T17:10:59.385Z,98052.91
2023-03-30T17:13:29.411Z,98043.53
2023-03-30T17:16:03.634Z,98041.25
2023-03-30T17:18:32.718Z,98040.13
2023-03-30T17:21:03.059Z,98044.22
2023-03-30T17:23:33.813Z,98052.72
2023-03-30T17:26:03.558Z,98055.41
2023-03-30T17:28:35.090Z,98061.25
2023-03-30T17:31:08.421Z,98067.97
2023-03-30T17:33:39.101Z,98075.56
2023-03-30T17:36:19.305Z,98075.38
2023-03-30T17:38:49.080Z,98090.06
2023-03-30T17:41:20.286Z,98097.72
2023-03-30T17:43:50.140Z,98108.75
2023-03-30T17:46:20.607Z,98106.41
2023-03-30T17:48:52.082Z,98110.66
2023-03-30T17:51:21.500Z,98125.81
2023-03-30T17:53:50.270Z,98126.53
2023-03-30T17:56:19.364Z,98138.44
2023-03-30T17:58:49.911Z,98137.72
2023-03-30T18:01:18.933Z,98135.88
2023-03-30T18:03:47.727Z,98136.06
2023-03-30T18:06:16.751Z,98133.63
2023-03-30T18:08:45.482Z,98136.88
2023-03-30T18:11:14.525Z,98144.00
2023-03-30T18:13:43.337Z,98150.53
2023-03-30T18:16:18.714Z,98150.22
2023-03-30T18:18:47.861Z,98148.53
2023-03-30T18:21:16.666Z,98145.16
2023-03-30T18:23:45.594Z,98143.78
2023-03-30T18:26:14.854Z,98158.88
2023-03-30T18:28:47.324Z,98150.13
2023-03-30T18:31:16.516Z,98161.91
2023-03-30T18:33:45.453Z,98164.81
2023-03-30T18:36:15.565Z,98164.81
2023-03-30T18:38:44.334Z,98177.63
2023-03-30T18:41:14.090Z,98177.34
2023-03-30T18:43:42.967Z,98178.63
2023-03-30T18:46:14.418Z,98177.06
2023-03-30T18:48:43.695Z,98167.56
2023-03-30T18:51:13.651Z,98168.41
2023-03-30T18:53:42.654Z,98164.41
2023-03-30T18:56:13.321Z,98171.22
2023-03-30T18:58:43.452Z,98176.59
2023-03-30T19:01:14.164Z,98184.63
2023-03-30T19:03:44.096Z,98181.25
2023-03-30T19:06:22.946Z,98171.44
2023-03-30T19:11:24.485Z,98159.97
2023-03-30T19:13:54.060Z,98158.03
2023-03-30T19:16:23.287Z,98147.34
2023-03-30T19:18:52.364Z,98122.75
2023-03-30T19:21:21.369Z,98120.97
2023-03-30T19:23:51.072Z,98114.50
2023-03-30T19:26:19.928Z,98104.78
2023-03-30T19:28:48.822Z,98098.78
2023-03-30T19:31:17.849Z,98092.53
2023-03-30T19:33:46.847Z,98089.91
2023-03-30T19:36:15.556Z,98089.47
2023-03-30T19:38:44.845Z,98088.56
2023-03-30T19:41:13.762Z,98077.09
2023-03-30T19:43:42.746Z,98086.44
2023-03-30T19:46:11.756Z,98085.31
2023-03-30T19:48:40.814Z,98086.84
2023-03-30T19:51:09.482Z,98076.47
2023-03-30T19:53:38.439Z,98080.25
2023-03-30T19:56:12.978Z,98063.13
2023-03-30T19:58:41.905Z,98061.78
2023-03-30T20:01:11.583Z,98064.50
2023-03-30T20:03:41.530Z,98067.25
2023-03-30T20:06:14.534Z,98062.44
2023-03-30T20:08:44.770Z,98063.22
2023-03-30T20:11:14.931Z,98062.44
2023-03-30T20:13:47.088Z,98058.69
2023-03-30T20:16:27.165Z,98065.44
2023-03-30T20:18:58.924Z,98073.94
2023-03-30T20:21:29.558Z,98070.91
2023-03-30T20:24:01.224Z,98066.34
2023-03-30T20:26:31.864Z,98065.22
2023-03-30T20:29:03.131Z,98071.41
2023-03-30T20:31:33.678Z,98074.38
2023-03-30T20:34:03.923Z,98072.41
2023-03-30T20:36:34.361Z,98082.03
2023-03-30T20:39:07.255Z,98079.72
2023-03-30T20:41:40.076Z,98076.06
2023-03-30T20:44:14.790Z,98056.94
2023-03-30T20:46:44.861Z,98060.28
2023-03-30T20:49:15.523Z,98062.41
2023-03-30T20:51:46.670Z,98062.91
2023-03-30T20:54:17.306Z,98061.06
2023-03-30T20:56:47.625Z,98058.03
2023-03-30T20:59:18.220Z,98059.84
2023-03-30T21:01:50.463Z,98058.88
2023-03-30T21:04:21.378Z,98055.56
2023-03-30T21:06:51.723Z,98053.22
2023-03-30T21:09:22.056Z,98047.75
2023-03-30T21:11:52.219Z,98041.41
2023-03-30T21:14:22.248Z,98036.09
2023-03-30T21:16:52.364Z,98034.88
2023-03-30T21:19:22.309Z,98032.81
2023-03-30T21:21:53.214Z,98032.69
2023-03-30T21:24:23.174Z,98018.50
2023-03-30T21:26:53.293Z,98020.41
2023-03-30T21:29:23.546Z,98024.72
2023-03-30T21:31:53.638Z,98017.19
2023-03-30T21:34:23.652Z,98024.31
2023-03-30T21:36:54.298Z,98011.28
2023-03-30T21:39:23.458Z,98010.53
2023-03-30T21:41:52.344Z,98005.41
2023-03-30T21:44:21.598Z,97993.03
2023-03-30T21:46:50.460Z,97990.75
2023-03-30T21:49:19.638Z,97992.94
2023-03-30T21:51:48.336Z,97984.59
2023-03-30T21:54:17.387Z,97984.78
2023-03-30T21:56:46.860Z,97980.09
2023-03-30T21:59:15.813Z,97992.75
2023-03-30T22:01:44.706Z,97997.59
2023-03-30T22:04:13.676Z,98003.78
2023-03-30T22:06:42.394Z,98013.22
2023-03-30T22:09:11.362Z,98021.88
2023-03-30T22:11:40.038Z,98041.50
2023-03-30T22:14:09.069Z,98049.97
2023-03-30T22:16:38.100Z,98045.34
2023-03-30T22:19:07.037Z,98047.59
2023-03-30T22:21:36.465Z,98044.78
2023-03-30T22:24:08.248Z,98056.19
2023-03-30T22:26:37.645Z,98046.47
2023-03-30T22:29:06.861Z,98049.97
2023-03-30T22:31:36.058Z,98048.84
2023-03-30T22:34:04.987Z,98045.38
2023-03-30T22:36:34.104Z,98036.53
2023-03-30T22:39:04.327Z,98035.63
2023-03-30T22:41:33.456Z,98032.47
2023-03-30T22:44:02.254Z,98026.28
2023-03-30T22:46:31.325Z,98029.91
2023-03-30T22:49:01.082Z,98025.22
2023-03-30T22:51:30.053Z,98022.38
2023-03-30T22:54:00.698Z,98014.16
2023-03-30T22:56:31.258Z,98015.34
2023-03-30T22:59:02.281Z,98009.09
2023-03-30T23:01:32.912Z,98007.28
2023-03-30T23:04:02.627Z,98017.84
2023-03-30T23:06:32.757Z,98007.63
2023-03-30T23:09:05.601Z,98008.66
2023-03-30T23:11:35.154Z,98011.22
2023-03-30T23:14:07.161Z,98010.75
2023-03-30T23:16:36.750Z,98008.97
2023-03-30T23:19:07.071Z,98004.16
2023-03-30T23:21:36.770Z,97998.66
2023-03-30T23:24:08.720Z,98004.84
2023-03-30T23:26:37.933Z,98005.63
2023-03-30T23:29:08.193Z,98006.91
2023-03-30T23:31:37.161Z,98001.53
2023-03-30T23:34:06.273Z,98010.22
2023-03-30T23:36:35.795Z,98017.31
2023-03-30T23:39:04.564Z,98026.66
2023-03-30T23:41:33.429Z,98023.03
2023-03-30T23:44:02.277Z,98022.59
2023-03-30T23:46:31.516Z,98018.09
2023-03-30T23:49:00.573Z,98012.19
2023-03-30T23:51:29.434Z,98020.84
2023-03-30T23:54:01.089Z,98018.34
2023-03-30T23:56:30.908Z,98028.13
2023-03-30T23:59:00.375Z,98031.47
